sensor_id;sensor_type;location;lat;lon;timestamp;P1;durP1;ratioP1;P2;durP2;ratioP2
13331;SDS011;6735;51.456;12.626;2023-07-29T00:01:11;2.00;;;1.90;;
13331;SDS011;6735;51.456;12.626;2023-07-29T00:03:36;1.90;;;1.80;;
13331;SDS011;6735;51.456;12.626;2023-07-29T00:06:02;1.60;;;1.50;;
13331;SDS011;6735;51.456;12.626;2023-07-29T00:08:27;2.20;;;2.10;;
13331;SDS011;6735;51.456;12.626;2023-07-29T00:10:53;1.70;;;1.60;;
13331;SDS011;6735;51.456;12.626;2023-07-29T00:13:18;4.97;;;2.30;;
13331;SDS011;6735;51.456;12.626;2023-07-29T00:15:44;1.90;;;1.70;;
13331;SDS011;6735;51.456;12.626;2023-07-29T00:18:10;2.87;;;1.80;;
13331;SDS011;6735;51.456;12.626;2023-07-29T00:20:35;3.33;;;1.77;;
13331;SDS011;6735;51.456;12.626;2023-07-29T00:23:01;3.37;;;1.80;;
13331;SDS011;6735;51.456;12.626;2023-07-29T00:25:27;2.33;;;1.83;;
13331;SDS011;6735;51.456;12.626;2023-07-29T00:27:54;2.17;;;2.00;;
13331;SDS011;6735;51.456;12.626;2023-07-29T00:30:21;3.20;;;1.60;;
13331;SDS011;6735;51.456;12.626;2023-07-29T00:32:46;1.80;;;1.70;;
13331;SDS011;6735;51.456;12.626;2023-07-29T00:35:12;1.80;;;1.70;;
13331;SDS011;6735;51.456;12.626;2023-07-29T00:37:38;3.47;;;2.10;;
13331;SDS011;6735;51.456;12.626;2023-07-29T00:40:05;4.77;;;2.00;;
13331;SDS011;6735;51.456;12.626;2023-07-29T00:42:39;2.73;;;1.77;;
13331;SDS011;6735;51.456;12.626;2023-07-29T00:45:05;2.10;;;2.00;;
13331;SDS011;6735;51.456;12.626;2023-07-29T00:47:32;2.20;;;2.00;;
13331;SDS011;6735;51.456;12.626;2023-07-29T00:49:58;1.63;;;1.53;;
13331;SDS011;6735;51.456;12.626;2023-07-29T00:52:24;2.13;;;1.93;;
13331;SDS011;6735;51.456;12.626;2023-07-29T00:54:49;3.93;;;1.80;;
13331;SDS011;6735;51.456;12.626;2023-07-29T00:57:15;2.60;;;2.30;;
13331;SDS011;6735;51.456;12.626;2023-07-29T00:59:41;1.80;;;1.70;;
13331;SDS011;6735;51.456;12.626;2023-07-29T01:02:07;1.70;;;1.60;;
13331;SDS011;6735;51.456;12.626;2023-07-29T01:04:33;1.80;;;1.70;;
13331;SDS011;6735;51.456;12.626;2023-07-29T01:07:17;2.07;;;1.70;;
13331;SDS011;6735;51.456;12.626;2023-07-29T01:09:51;1.90;;;1.80;;
13331;SDS011;6735;51.456;12.626;2023-07-29T01:15:18;4.40;;;2.00;;
13331;SDS011;6735;51.456;12.626;2023-07-29T01:17:54;5.40;;;2.07;;
13331;SDS011;6735;51.456;12.626;2023-07-29T01:20:24;2.07;;;1.97;;
13331;SDS011;6735;51.456;12.626;2023-07-29T01:22:50;2.07;;;1.90;;
13331;SDS011;6735;51.456;12.626;2023-07-29T01:25:16;4.10;;;2.07;;
13331;SDS011;6735;51.456;12.626;2023-07-29T01:27:43;7.23;;;2.20;;
13331;SDS011;6735;51.456;12.626;2023-07-29T01:30:10;2.00;;;1.90;;
13331;SDS011;6735;51.456;12.626;2023-07-29T01:32:54;1.83;;;1.73;;
13331;SDS011;6735;51.456;12.626;2023-07-29T01:37:52;2.20;;;2.10;;
13331;SDS011;6735;51.456;12.626;2023-07-29T01:40:29;2.20;;;2.03;;
13331;SDS011;6735;51.456;12.626;2023-07-29T01:42:55;1.90;;;1.80;;
13331;SDS011;6735;51.456;12.626;2023-07-29T01:45:24;2.80;;;2.40;;
13331;SDS011;6735;51.456;12.626;2023-07-29T01:47:52;2.57;;;2.20;;
13331;SDS011;6735;51.456;12.626;2023-07-29T01:50:18;4.20;;;2.60;;
13331;SDS011;6735;51.456;12.626;2023-07-29T01:52:44;2.37;;;2.20;;
13331;SDS011;6735;51.456;12.626;2023-07-29T01:55:09;2.37;;;2.07;;
13331;SDS011;6735;51.456;12.626;2023-07-29T01:57:35;2.50;;;2.30;;
13331;SDS011;6735;51.456;12.626;2023-07-29T02:00:00;2.53;;;2.33;;
13331;SDS011;6735;51.456;12.626;2023-07-29T02:02:28;2.77;;;1.90;;
13331;SDS011;6735;51.456;12.626;2023-07-29T02:04:54;2.30;;;2.10;;
13331;SDS011;6735;51.456;12.626;2023-07-29T02:07:20;2.50;;;2.30;;
13331;SDS011;6735;51.456;12.626;2023-07-29T02:09:46;2.90;;;2.30;;
13331;SDS011;6735;51.456;12.626;2023-07-29T02:12:11;2.43;;;2.27;;
13331;SDS011;6735;51.456;12.626;2023-07-29T02:14:37;2.70;;;2.50;;
13331;SDS011;6735;51.456;12.626;2023-07-29T02:17:03;2.10;;;2.00;;
13331;SDS011;6735;51.456;12.626;2023-07-29T02:19:28;2.70;;;2.50;;
13331;SDS011;6735;51.456;12.626;2023-07-29T02:21:54;2.37;;;2.27;;
13331;SDS011;6735;51.456;12.626;2023-07-29T02:24:19;2.37;;;2.17;;
13331;SDS011;6735;51.456;12.626;2023-07-29T02:26:44;2.20;;;2.10;;
13331;SDS011;6735;51.456;12.626;2023-07-29T02:29:10;2.10;;;2.00;;
13331;SDS011;6735;51.456;12.626;2023-07-29T02:31:35;2.67;;;2.47;;
13331;SDS011;6735;51.456;12.626;2023-07-29T02:34:02;2.60;;;2.40;;
13331;SDS011;6735;51.456;12.626;2023-07-29T02:36:28;3.53;;;2.37;;
13331;SDS011;6735;51.456;12.626;2023-07-29T02:38:53;4.97;;;2.13;;
13331;SDS011;6735;51.456;12.626;2023-07-29T02:41:19;2.10;;;2.00;;
13331;SDS011;6735;51.456;12.626;2023-07-29T02:43:48;2.50;;;2.30;;
13331;SDS011;6735;51.456;12.626;2023-07-29T02:46:14;2.40;;;2.20;;
13331;SDS011;6735;51.456;12.626;2023-07-29T02:48:40;2.40;;;2.20;;
13331;SDS011;6735;51.456;12.626;2023-07-29T02:51:06;2.20;;;2.10;;
13331;SDS011;6735;51.456;12.626;2023-07-29T02:53:32;2.13;;;2.00;;
13331;SDS011;6735;51.456;12.626;2023-07-29T02:55:57;2.00;;;1.90;;
13331;SDS011;6735;51.456;12.626;2023-07-29T02:58:23;2.17;;;2.07;;
13331;SDS011;6735;51.456;12.626;2023-07-29T03:00:48;2.30;;;2.07;;
13331;SDS011;6735;51.456;12.626;2023-07-29T03:03:15;6.27;;;2.10;;
13331;SDS011;6735;51.456;12.626;2023-07-29T03:05:40;4.30;;;1.90;;
13331;SDS011;6735;51.456;12.626;2023-07-29T03:08:06;2.03;;;1.93;;
13331;SDS011;6735;51.456;12.626;2023-07-29T03:10:34;2.00;;;1.90;;
13331;SDS011;6735;51.456;12.626;2023-07-29T03:13:00;1.90;;;1.80;;
13331;SDS011;6735;51.456;12.626;2023-07-29T03:15:25;2.27;;;2.10;;
13331;SDS011;6735;51.456;12.626;2023-07-29T03:17:51;1.93;;;1.83;;
13331;SDS011;6735;51.456;12.626;2023-07-29T03:20:17;1.90;;;1.80;;
13331;SDS011;6735;51.456;12.626;2023-07-29T03:22:44;2.30;;;2.10;;
13331;SDS011;6735;51.456;12.626;2023-07-29T03:25:10;2.17;;;2.07;;
13331;SDS011;6735;51.456;12.626;2023-07-29T03:27:36;2.17;;;1.83;;
13331;SDS011;6735;51.456;12.626;2023-07-29T03:30:02;2.70;;;1.90;;
13331;SDS011;6735;51.456;12.626;2023-07-29T03:32:31;1.80;;;1.70;;
13331;SDS011;6735;51.456;12.626;2023-07-29T03:34:56;2.07;;;1.93;;
13331;SDS011;6735;51.456;12.626;2023-07-29T03:37:22;2.37;;;2.20;;
13331;SDS011;6735;51.456;12.626;2023-07-29T03:39:47;2.00;;;1.90;;
13331;SDS011;6735;51.456;12.626;2023-07-29T03:42:13;2.00;;;1.90;;
13331;SDS011;6735;51.456;12.626;2023-07-29T03:44:38;2.13;;;2.03;;
13331;SDS011;6735;51.456;12.626;2023-07-29T03:47:05;2.00;;;1.90;;
13331;SDS011;6735;51.456;12.626;2023-07-29T03:49:31;2.00;;;1.90;;
13331;SDS011;6735;51.456;12.626;2023-07-29T03:51:56;2.67;;;1.70;;
13331;SDS011;6735;51.456;12.626;2023-07-29T03:54:22;2.70;;;2.23;;
13331;SDS011;6735;51.456;12.626;2023-07-29T03:56:47;2.20;;;2.10;;
13331;SDS011;6735;51.456;12.626;2023-07-29T03:59:13;2.33;;;2.13;;
13331;SDS011;6735;51.456;12.626;2023-07-29T04:01:39;3.00;;;2.20;;
13331;SDS011;6735;51.456;12.626;2023-07-29T04:04:04;2.27;;;2.17;;
13331;SDS011;6735;51.456;12.626;2023-07-29T04:06:30;2.87;;;2.00;;
13331;SDS011;6735;51.456;12.626;2023-07-29T04:08:56;2.10;;;2.00;;
13331;SDS011;6735;51.456;12.626;2023-07-29T04:11:22;2.13;;;2.03;;
13331;SDS011;6735;51.456;12.626;2023-07-29T04:13:48;3.03;;;1.93;;
13331;SDS011;6735;51.456;12.626;2023-07-29T04:16:13;1.93;;;1.83;;
13331;SDS011;6735;51.456;12.626;2023-07-29T04:18:39;2.30;;;2.17;;
13331;SDS011;6735;51.456;12.626;2023-07-29T04:21:04;2.40;;;2.20;;
13331;SDS011;6735;51.456;12.626;2023-07-29T04:23:30;2.00;;;1.80;;
13331;SDS011;6735;51.456;12.626;2023-07-29T04:25:55;2.17;;;2.00;;
13331;SDS011;6735;51.456;12.626;2023-07-29T04:28:21;2.40;;;2.20;;
13331;SDS011;6735;51.456;12.626;2023-07-29T04:30:46;2.23;;;2.13;;
13331;SDS011;6735;51.456;12.626;2023-07-29T04:33:12;2.70;;;2.20;;
13331;SDS011;6735;51.456;12.626;2023-07-29T04:35:37;2.30;;;2.20;;
13331;SDS011;6735;51.456;12.626;2023-07-29T04:38:03;4.50;;;2.60;;
13331;SDS011;6735;51.456;12.626;2023-07-29T04:40:28;1.93;;;1.83;;
13331;SDS011;6735;51.456;12.626;2023-07-29T04:42:54;2.23;;;2.13;;
13331;SDS011;6735;51.456;12.626;2023-07-29T04:45:19;2.20;;;2.10;;
13331;SDS011;6735;51.456;12.626;2023-07-29T04:47:45;2.20;;;2.10;;
13331;SDS011;6735;51.456;12.626;2023-07-29T04:50:10;2.23;;;2.00;;
13331;SDS011;6735;51.456;12.626;2023-07-29T04:52:36;2.70;;;2.00;;
13331;SDS011;6735;51.456;12.626;2023-07-29T04:55:01;2.00;;;1.90;;
13331;SDS011;6735;51.456;12.626;2023-07-29T04:57:27;2.17;;;2.07;;
13331;SDS011;6735;51.456;12.626;2023-07-29T04:59:54;2.30;;;2.10;;
13331;SDS011;6735;51.456;12.626;2023-07-29T05:02:19;2.03;;;1.93;;
13331;SDS011;6735;51.456;12.626;2023-07-29T05:04:46;2.40;;;2.20;;
13331;SDS011;6735;51.456;12.626;2023-07-29T05:07:11;2.30;;;2.20;;
13331;SDS011;6735;51.456;12.626;2023-07-29T05:09:37;2.03;;;1.90;;
13331;SDS011;6735;51.456;12.626;2023-07-29T05:12:02;1.90;;;1.80;;
13331;SDS011;6735;51.456;12.626;2023-07-29T05:14:28;1.70;;;1.60;;
13331;SDS011;6735;51.456;12.626;2023-07-29T05:16:53;1.77;;;1.67;;
13331;SDS011;6735;51.456;12.626;2023-07-29T05:19:19;1.60;;;1.50;;
13331;SDS011;6735;51.456;12.626;2023-07-29T05:21:45;1.63;;;1.60;;
13331;SDS011;6735;51.456;12.626;2023-07-29T05:24:10;2.33;;;2.00;;
13331;SDS011;6735;51.456;12.626;2023-07-29T05:26:36;1.83;;;1.73;;
13331;SDS011;6735;51.456;12.626;2023-07-29T05:29:01;1.50;;;1.40;;
13331;SDS011;6735;51.456;12.626;2023-07-29T05:31:27;1.40;;;1.33;;
13331;SDS011;6735;51.456;12.626;2023-07-29T05:33:52;1.43;;;1.33;;
13331;SDS011;6735;51.456;12.626;2023-07-29T05:36:19;1.20;;;1.20;;
13331;SDS011;6735;51.456;12.626;2023-07-29T05:38:45;1.50;;;1.40;;
13331;SDS011;6735;51.456;12.626;2023-07-29T05:41:10;1.53;;;1.40;;
13331;SDS011;6735;51.456;12.626;2023-07-29T05:43:35;2.93;;;1.63;;
13331;SDS011;6735;51.456;12.626;2023-07-29T05:46:01;2.00;;;1.90;;
13331;SDS011;6735;51.456;12.626;2023-07-29T05:48:27;1.60;;;1.50;;
13331;SDS011;6735;51.456;12.626;2023-07-29T05:50:52;1.57;;;1.50;;
13331;SDS011;6735;51.456;12.626;2023-07-29T05:53:18;1.70;;;1.60;;
13331;SDS011;6735;51.456;12.626;2023-07-29T05:55:44;1.77;;;1.67;;
13331;SDS011;6735;51.456;12.626;2023-07-29T05:58:09;1.23;;;1.23;;
13331;SDS011;6735;51.456;12.626;2023-07-29T06:00:35;1.43;;;1.43;;
13331;SDS011;6735;51.456;12.626;2023-07-29T06:03:00;3.07;;;1.33;;
13331;SDS011;6735;51.456;12.626;2023-07-29T06:05:26;1.77;;;1.37;;
13331;SDS011;6735;51.456;12.626;2023-07-29T06:07:51;1.60;;;1.50;;
13331;SDS011;6735;51.456;12.626;2023-07-29T06:10:17;1.40;;;1.30;;
13331;SDS011;6735;51.456;12.626;2023-07-29T06:12:43;1.73;;;1.63;;
13331;SDS011;6735;51.456;12.626;2023-07-29T06:15:12;1.50;;;1.40;;
13331;SDS011;6735;51.456;12.626;2023-07-29T06:17:38;1.30;;;1.30;;
13331;SDS011;6735;51.456;12.626;2023-07-29T06:20:05;1.37;;;1.27;;
13331;SDS011;6735;51.456;12.626;2023-07-29T06:22:31;1.30;;;1.30;;
13331;SDS011;6735;51.456;12.626;2023-07-29T06:24:57;1.90;;;1.50;;
13331;SDS011;6735;51.456;12.626;2023-07-29T06:27:22;2.10;;;1.90;;
13331;SDS011;6735;51.456;12.626;2023-07-29T06:29:49;1.63;;;1.53;;
13331;SDS011;6735;51.456;12.626;2023-07-29T06:32:15;1.90;;;1.80;;
13331;SDS011;6735;51.456;12.626;2023-07-29T06:34:40;2.10;;;1.50;;
13331;SDS011;6735;51.456;12.626;2023-07-29T06:37:06;1.80;;;1.70;;
13331;SDS011;6735;51.456;12.626;2023-07-29T06:39:32;1.90;;;1.80;;
13331;SDS011;6735;51.456;12.626;2023-07-29T06:41:57;2.10;;;1.60;;
13331;SDS011;6735;51.456;12.626;2023-07-29T06:44:23;1.40;;;1.40;;
13331;SDS011;6735;51.456;12.626;2023-07-29T06:46:48;1.80;;;1.70;;
13331;SDS011;6735;51.456;12.626;2023-07-29T06:49:14;1.80;;;1.70;;
13331;SDS011;6735;51.456;12.626;2023-07-29T06:51:39;1.70;;;1.60;;
13331;SDS011;6735;51.456;12.626;2023-07-29T06:54:05;2.07;;;1.60;;
13331;SDS011;6735;51.456;12.626;2023-07-29T06:56:31;1.67;;;1.50;;
13331;SDS011;6735;51.456;12.626;2023-07-29T06:58:56;2.00;;;1.80;;
13331;SDS011;6735;51.456;12.626;2023-07-29T07:01:22;1.90;;;1.80;;
13331;SDS011;6735;51.456;12.626;2023-07-29T07:03:47;1.70;;;1.60;;
13331;SDS011;6735;51.456;12.626;2023-07-29T07:06:13;2.23;;;1.67;;
13331;SDS011;6735;51.456;12.626;2023-07-29T07:08:38;2.50;;;1.80;;
13331;SDS011;6735;51.456;12.626;2023-07-29T07:11:04;2.63;;;1.70;;
13331;SDS011;6735;51.456;12.626;2023-07-29T07:13:29;1.60;;;1.50;;
13331;SDS011;6735;51.456;12.626;2023-07-29T07:15:55;1.80;;;1.70;;
13331;SDS011;6735;51.456;12.626;2023-07-29T07:18:21;7.70;;;2.03;;
13331;SDS011;6735;51.456;12.626;2023-07-29T07:20:49;2.07;;;1.80;;
13331;SDS011;6735;51.456;12.626;2023-07-29T07:23:16;2.07;;;1.60;;
13331;SDS011;6735;51.456;12.626;2023-07-29T07:25:42;1.77;;;1.67;;
13331;SDS011;6735;51.456;12.626;2023-07-29T07:28:08;2.57;;;1.50;;
13331;SDS011;6735;51.456;12.626;2023-07-29T07:30:34;2.30;;;1.37;;
13331;SDS011;6735;51.456;12.626;2023-07-29T07:33:00;2.63;;;1.67;;
13331;SDS011;6735;51.456;12.626;2023-07-29T07:35:26;2.60;;;1.70;;
13331;SDS011;6735;51.456;12.626;2023-07-29T07:37:51;3.40;;;1.50;;
13331;SDS011;6735;51.456;12.626;2023-07-29T07:40:17;1.87;;;1.70;;
13331;SDS011;6735;51.456;12.626;2023-07-29T07:42:43;2.00;;;1.90;;
13331;SDS011;6735;51.456;12.626;2023-07-29T07:45:08;3.03;;;1.70;;
13331;SDS011;6735;51.456;12.626;2023-07-29T07:47:34;2.10;;;2.00;;
13331;SDS011;6735;51.456;12.626;2023-07-29T07:49:59;3.63;;;2.13;;
13331;SDS011;6735;51.456;12.626;2023-07-29T07:52:25;2.00;;;1.90;;
13331;SDS011;6735;51.456;12.626;2023-07-29T07:54:54;2.00;;;1.80;;
13331;SDS011;6735;51.456;12.626;2023-07-29T07:57:20;1.53;;;1.43;;
13331;SDS011;6735;51.456;12.626;2023-07-29T07:59:46;4.00;;;1.53;;
13331;SDS011;6735;51.456;12.626;2023-07-29T08:02:12;2.03;;;1.53;;
13331;SDS011;6735;51.456;12.626;2023-07-29T08:04:38;1.73;;;1.63;;
13331;SDS011;6735;51.456;12.626;2023-07-29T08:07:03;1.60;;;1.50;;
13331;SDS011;6735;51.456;12.626;2023-07-29T08:09:29;1.47;;;1.47;;
13331;SDS011;6735;51.456;12.626;2023-07-29T08:11:54;3.60;;;1.67;;
13331;SDS011;6735;51.456;12.626;2023-07-29T08:14:20;1.57;;;1.50;;
13331;SDS011;6735;51.456;12.626;2023-07-29T08:16:46;1.70;;;1.60;;
13331;SDS011;6735;51.456;12.626;2023-07-29T08:19:11;2.20;;;1.50;;
13331;SDS011;6735;51.456;12.626;2023-07-29T08:21:37;1.47;;;1.37;;
13331;SDS011;6735;51.456;12.626;2023-07-29T08:24:02;1.30;;;1.30;;
13331;SDS011;6735;51.456;12.626;2023-07-29T08:26:28;1.60;;;1.50;;
13331;SDS011;6735;51.456;12.626;2023-07-29T08:28:54;1.47;;;1.47;;
13331;SDS011;6735;51.456;12.626;2023-07-29T08:31:19;1.83;;;1.60;;
13331;SDS011;6735;51.456;12.626;2023-07-29T08:33:45;1.90;;;1.80;;
13331;SDS011;6735;51.456;12.626;2023-07-29T08:36:10;8.57;;;1.60;;
13331;SDS011;6735;51.456;12.626;2023-07-29T08:38:36;1.33;;;1.30;;
13331;SDS011;6735;51.456;12.626;2023-07-29T08:41:06;1.43;;;1.33;;
13331;SDS011;6735;51.456;12.626;2023-07-29T08:43:39;1.40;;;1.40;;
13331;SDS011;6735;51.456;12.626;2023-07-29T08:46:28;1.83;;;1.73;;
13331;SDS011;6735;51.456;12.626;2023-07-29T08:48:54;1.70;;;1.60;;
13331;SDS011;6735;51.456;12.626;2023-07-29T08:51:20;1.60;;;1.50;;
13331;SDS011;6735;51.456;12.626;2023-07-29T08:53:48;1.73;;;1.63;;
13331;SDS011;6735;51.456;12.626;2023-07-29T08:56:14;3.27;;;1.50;;
13331;SDS011;6735;51.456;12.626;2023-07-29T08:58:40;1.60;;;1.50;;
13331;SDS011;6735;51.456;12.626;2023-07-29T09:01:06;1.40;;;1.40;;
13331;SDS011;6735;51.456;12.626;2023-07-29T09:03:32;1.87;;;1.43;;
13331;SDS011;6735;51.456;12.626;2023-07-29T09:05:58;1.60;;;1.50;;
13331;SDS011;6735;51.456;12.626;2023-07-29T09:08:25;1.60;;;1.50;;
13331;SDS011;6735;51.456;12.626;2023-07-29T09:10:51;4.60;;;1.70;;
13331;SDS011;6735;51.456;12.626;2023-07-29T09:13:17;6.37;;;2.30;;
13331;SDS011;6735;51.456;12.626;2023-07-29T09:15:42;2.40;;;1.70;;
13331;SDS011;6735;51.456;12.626;2023-07-29T09:18:13;1.60;;;1.50;;
13331;SDS011;6735;51.456;12.626;2023-07-29T09:20:41;1.40;;;1.30;;
13331;SDS011;6735;51.456;12.626;2023-07-29T09:23:07;2.77;;;1.60;;
13331;SDS011;6735;51.456;12.626;2023-07-29T09:25:37;2.80;;;1.40;;
13331;SDS011;6735;51.456;12.626;2023-07-29T09:28:08;2.00;;;1.50;;
13331;SDS011;6735;51.456;12.626;2023-07-29T09:30:34;2.07;;;1.60;;
13331;SDS011;6735;51.456;12.626;2023-07-29T09:33:00;1.57;;;1.47;;
13331;SDS011;6735;51.456;12.626;2023-07-29T09:35:27;1.70;;;1.60;;
13331;SDS011;6735;51.456;12.626;2023-07-29T09:37:53;1.80;;;1.50;;
13331;SDS011;6735;51.456;12.626;2023-07-29T09:40:19;2.27;;;1.37;;
13331;SDS011;6735;51.456;12.626;2023-07-29T09:42:48;2.93;;;1.80;;
13331;SDS011;6735;51.456;12.626;2023-07-29T09:45:24;1.70;;;1.60;;
13331;SDS011;6735;51.456;12.626;2023-07-29T09:47:54;7.00;;;1.50;;
13331;SDS011;6735;51.456;12.626;2023-07-29T09:50:25;3.77;;;2.07;;
13331;SDS011;6735;51.456;12.626;2023-07-29T09:52:52;1.63;;;1.53;;
13331;SDS011;6735;51.456;12.626;2023-07-29T09:55:19;3.70;;;1.43;;
13331;SDS011;6735;51.456;12.626;2023-07-29T09:57:46;2.13;;;1.90;;
13331;SDS011;6735;51.456;12.626;2023-07-29T10:00:12;2.83;;;1.70;;
13331;SDS011;6735;51.456;12.626;2023-07-29T10:02:42;10.37;;;2.63;;
13331;SDS011;6735;51.456;12.626;2023-07-29T10:05:08;1.43;;;1.33;;
13331;SDS011;6735;51.456;12.626;2023-07-29T10:07:38;2.27;;;1.30;;
13331;SDS011;6735;51.456;12.626;2023-07-29T10:10:04;1.80;;;1.40;;
13331;SDS011;6735;51.456;12.626;2023-07-29T10:12:31;16.37;;;2.97;;
13331;SDS011;6735;51.456;12.626;2023-07-29T10:15:01;1.97;;;1.27;;
13331;SDS011;6735;51.456;12.626;2023-07-29T10:17:29;1.30;;;1.20;;
13331;SDS011;6735;51.456;12.626;2023-07-29T10:19:55;3.17;;;1.23;;
13331;SDS011;6735;51.456;12.626;2023-07-29T10:22:24;1.57;;;1.20;;
13331;SDS011;6735;51.456;12.626;2023-07-29T10:24:53;1.30;;;1.10;;
13331;SDS011;6735;51.456;12.626;2023-07-29T10:27:24;1.20;;;1.20;;
13331;SDS011;6735;51.456;12.626;2023-07-29T10:29:51;1.10;;;1.00;;
13331;SDS011;6735;51.456;12.626;2023-07-29T10:32:19;2.10;;;0.90;;
13331;SDS011;6735;51.456;12.626;2023-07-29T10:34:49;1.50;;;1.40;;
13331;SDS011;6735;51.456;12.626;2023-07-29T10:37:16;2.20;;;1.10;;
13331;SDS011;6735;51.456;12.626;2023-07-29T10:39:51;1.03;;;1.03;;
13331;SDS011;6735;51.456;12.626;2023-07-29T10:42:17;1.20;;;1.10;;
13331;SDS011;6735;51.456;12.626;2023-07-29T10:44:47;0.93;;;0.93;;
13331;SDS011;6735;51.456;12.626;2023-07-29T10:49:48;1.20;;;1.20;;
13331;SDS011;6735;51.456;12.626;2023-07-29T10:52:37;1.10;;;1.10;;
13331;SDS011;6735;51.456;12.626;2023-07-29T10:55:24;1.20;;;1.20;;
13331;SDS011;6735;51.456;12.626;2023-07-29T10:58:08;1.27;;;1.13;;
13331;SDS011;6735;51.456;12.626;2023-07-29T11:00:37;1.83;;;1.10;;
13331;SDS011;6735;51.456;12.626;2023-07-29T11:03:07;4.33;;;1.30;;
13331;SDS011;6735;51.456;12.626;2023-07-29T11:05:46;1.40;;;1.07;;
13331;SDS011;6735;51.456;12.626;2023-07-29T11:08:17;1.50;;;1.40;;
13331;SDS011;6735;51.456;12.626;2023-07-29T11:11:01;1.20;;;1.10;;
13331;SDS011;6735;51.456;12.626;2023-07-29T11:13:27;1.03;;;1.00;;
13331;SDS011;6735;51.456;12.626;2023-07-29T11:15:54;3.83;;;1.30;;
13331;SDS011;6735;51.456;12.626;2023-07-29T11:18:21;1.10;;;1.10;;
13331;SDS011;6735;51.456;12.626;2023-07-29T11:20:47;1.20;;;1.10;;
13331;SDS011;6735;51.456;12.626;2023-07-29T11:23:13;0.87;;;0.87;;
13331;SDS011;6735;51.456;12.626;2023-07-29T11:25:39;1.13;;;1.13;;
13331;SDS011;6735;51.456;12.626;2023-07-29T11:28:05;1.30;;;1.20;;
13331;SDS011;6735;51.456;12.626;2023-07-29T11:30:31;2.90;;;1.20;;
13331;SDS011;6735;51.456;12.626;2023-07-29T11:32:57;1.10;;;1.10;;
13331;SDS011;6735;51.456;12.626;2023-07-29T11:35:23;1.30;;;1.30;;
13331;SDS011;6735;51.456;12.626;2023-07-29T11:37:49;2.30;;;1.20;;
13331;SDS011;6735;51.456;12.626;2023-07-29T11:40:16;1.93;;;1.10;;
13331;SDS011;6735;51.456;12.626;2023-07-29T11:42:46;2.90;;;1.53;;
13331;SDS011;6735;51.456;12.626;2023-07-29T11:45:15;1.53;;;1.43;;
13331;SDS011;6735;51.456;12.626;2023-07-29T11:47:41;3.57;;;1.50;;
13331;SDS011;6735;51.456;12.626;2023-07-29T11:50:07;1.53;;;1.43;;
13331;SDS011;6735;51.456;12.626;2023-07-29T11:52:35;1.87;;;1.40;;
13331;SDS011;6735;51.456;12.626;2023-07-29T11:55:01;2.57;;;1.67;;
13331;SDS011;6735;51.456;12.626;2023-07-29T11:57:38;1.53;;;1.43;;
13331;SDS011;6735;51.456;12.626;2023-07-29T12:00:05;2.43;;;1.50;;
13331;SDS011;6735;51.456;12.626;2023-07-29T12:02:33;1.20;;;1.20;;
13331;SDS011;6735;51.456;12.626;2023-07-29T12:05:03;3.37;;;2.10;;
13331;SDS011;6735;51.456;12.626;2023-07-29T12:07:30;1.40;;;1.30;;
13331;SDS011;6735;51.456;12.626;2023-07-29T12:09:58;2.03;;;1.60;;
13331;SDS011;6735;51.456;12.626;2023-07-29T12:12:24;1.90;;;1.43;;
13331;SDS011;6735;51.456;12.626;2023-07-29T12:14:49;1.63;;;1.53;;
13331;SDS011;6735;51.456;12.626;2023-07-29T12:17:15;1.60;;;1.50;;
13331;SDS011;6735;51.456;12.626;2023-07-29T12:19:41;1.63;;;1.33;;
13331;SDS011;6735;51.456;12.626;2023-07-29T12:22:08;1.50;;;1.40;;
13331;SDS011;6735;51.456;12.626;2023-07-29T12:24:38;1.60;;;1.50;;
13331;SDS011;6735;51.456;12.626;2023-07-29T12:27:05;1.87;;;1.37;;
13331;SDS011;6735;51.456;12.626;2023-07-29T12:29:39;1.67;;;1.57;;
13331;SDS011;6735;51.456;12.626;2023-07-29T12:32:08;1.67;;;1.50;;
13331;SDS011;6735;51.456;12.626;2023-07-29T12:34:36;1.43;;;1.10;;
13331;SDS011;6735;51.456;12.626;2023-07-29T12:37:04;1.53;;;1.43;;
13331;SDS011;6735;51.456;12.626;2023-07-29T12:39:31;1.43;;;1.43;;
13331;SDS011;6735;51.456;12.626;2023-07-29T12:41:58;1.93;;;1.53;;
13331;SDS011;6735;51.456;12.626;2023-07-29T12:44:25;1.60;;;1.50;;
13331;SDS011;6735;51.456;12.626;2023-07-29T12:46:55;1.37;;;1.33;;
13331;SDS011;6735;51.456;12.626;2023-07-29T12:49:21;1.50;;;1.40;;
13331;SDS011;6735;51.456;12.626;2023-07-29T12:51:47;1.67;;;1.57;;
13331;SDS011;6735;51.456;12.626;2023-07-29T12:54:13;1.63;;;1.53;;
13331;SDS011;6735;51.456;12.626;2023-07-29T12:56:38;1.70;;;1.60;;
13331;SDS011;6735;51.456;12.626;2023-07-29T12:59:04;1.70;;;1.60;;
13331;SDS011;6735;51.456;12.626;2023-07-29T13:01:30;1.90;;;1.80;;
13331;SDS011;6735;51.456;12.626;2023-07-29T13:03:56;1.53;;;1.43;;
13331;SDS011;6735;51.456;12.626;2023-07-29T13:06:21;1.50;;;1.40;;
13331;SDS011;6735;51.456;12.626;2023-07-29T13:08:47;3.80;;;1.70;;
13331;SDS011;6735;51.456;12.626;2023-07-29T13:11:14;5.33;;;2.07;;
13331;SDS011;6735;51.456;12.626;2023-07-29T13:13:40;2.70;;;1.80;;
13331;SDS011;6735;51.456;12.626;2023-07-29T13:16:06;7.07;;;2.17;;
13331;SDS011;6735;51.456;12.626;2023-07-29T13:18:32;5.47;;;1.67;;
13331;SDS011;6735;51.456;12.626;2023-07-29T13:20:58;4.88;;;1.75;;
13331;SDS011;6735;51.456;12.626;2023-07-29T13:23:25;2.47;;;1.33;;
13331;SDS011;6735;51.456;12.626;2023-07-29T13:25:51;1.87;;;1.60;;
13331;SDS011;6735;51.456;12.626;2023-07-29T13:28:17;1.63;;;1.53;;
13331;SDS011;6735;51.456;12.626;2023-07-29T13:30:44;1.63;;;1.50;;
13331;SDS011;6735;51.456;12.626;2023-07-29T13:33:09;2.47;;;1.43;;
13331;SDS011;6735;51.456;12.626;2023-07-29T13:35:35;3.33;;;1.80;;
13331;SDS011;6735;51.456;12.626;2023-07-29T13:38:01;1.70;;;1.60;;
13331;SDS011;6735;51.456;12.626;2023-07-29T13:40:26;1.52;;;1.42;;
13331;SDS011;6735;51.456;12.626;2023-07-29T13:42:52;1.45;;;1.35;;
13331;SDS011;6735;51.456;12.626;2023-07-29T13:45:18;1.87;;;1.30;;
13331;SDS011;6735;51.456;12.626;2023-07-29T13:47:44;2.17;;;1.45;;
13331;SDS011;6735;51.456;12.626;2023-07-29T13:50:10;3.70;;;1.52;;
13331;SDS011;6735;51.456;12.626;2023-07-29T13:52:36;1.25;;;1.25;;
13331;SDS011;6735;51.456;12.626;2023-07-29T13:55:02;1.88;;;1.30;;
13331;SDS011;6735;51.456;12.626;2023-07-29T13:57:28;4.00;;;1.63;;
13331;SDS011;6735;51.456;12.626;2023-07-29T13:59:54;1.85;;;1.42;;
13331;SDS011;6735;51.456;12.626;2023-07-29T14:02:19;1.60;;;1.50;;
13331;SDS011;6735;51.456;12.626;2023-07-29T14:04:45;2.00;;;1.40;;
13331;SDS011;6735;51.456;12.626;2023-07-29T14:07:10;6.45;;;1.52;;
13331;SDS011;6735;51.456;12.626;2023-07-29T14:09:36;2.22;;;1.70;;
13331;SDS011;6735;51.456;12.626;2023-07-29T14:12:03;1.73;;;1.40;;
13331;SDS011;6735;51.456;12.626;2023-07-29T14:14:29;3.03;;;1.70;;
13331;SDS011;6735;51.456;12.626;2023-07-29T14:16:55;1.75;;;1.65;;
13331;SDS011;6735;51.456;12.626;2023-07-29T14:19:20;1.50;;;1.40;;
13331;SDS011;6735;51.456;12.626;2023-07-29T14:21:46;1.70;;;1.60;;
13331;SDS011;6735;51.456;12.626;2023-07-29T14:24:11;1.90;;;1.50;;
13331;SDS011;6735;51.456;12.626;2023-07-29T14:26:37;1.48;;;1.38;;
13331;SDS011;6735;51.456;12.626;2023-07-29T14:29:02;3.13;;;1.90;;
13331;SDS011;6735;51.456;12.626;2023-07-29T14:31:28;1.88;;;1.67;;
13331;SDS011;6735;51.456;12.626;2023-07-29T14:33:53;3.67;;;1.60;;
13331;SDS011;6735;51.456;12.626;2023-07-29T14:36:19;1.90;;;1.48;;
13331;SDS011;6735;51.456;12.626;2023-07-29T14:38:44;1.77;;;1.67;;
13331;SDS011;6735;51.456;12.626;2023-07-29T14:41:10;2.75;;;1.55;;
13331;SDS011;6735;51.456;12.626;2023-07-29T14:43:35;1.98;;;1.70;;
13331;SDS011;6735;51.456;12.626;2023-07-29T14:46:01;1.80;;;1.70;;
13331;SDS011;6735;51.456;12.626;2023-07-29T14:48:27;2.13;;;1.80;;
13331;SDS011;6735;51.456;12.626;2023-07-29T14:50:53;1.75;;;1.65;;
13331;SDS011;6735;51.456;12.626;2023-07-29T14:53:18;4.33;;;2.67;;